Aérodrome :
LOGIN :

S'inscrire | Disclaimer

   EN    FR    IT 

 










Légende :    VFR   VFR Marginal   IFR   IFR Intensif   IFR Très Intensif
Visi : 
Plafond : 
>= 8 km
>= 3000ft
5 à 8 km
1000 à 3000 ft
1500m à 5 km
500 à 1000 ft
800 à 1500m
200 à 500 ft
< 800m
< 200 ft
Symboles :   Orages  Brouillard  Fortes neiges  Fortes précipitations  Vent > 20 kt
SIGMETs :   Divers  Orages  Givrage  Turbulence  Onde Orograph.  Cendres Volcan.






- Altitude de l'aérodrome : 416 ft
- Code IATA : OVD


LEAS - Asturias

DERNIER METAR :
  • 261730Z 10011G21KT 070V150 9999 SCT014 18/15 Q1028 TEMPO BKN014

METARs EXPIRÉS :
  • 261700Z 09013KT 050V140 9999 FEW012 19/15 Q1028 TEMPO BKN014
  • 261630Z 09012KT 040V130 9999 FEW025 20/15 Q1028 NOSIG
  • 261600Z 08009KT 040V120 9999 FEW025 20/15 Q1028 NOSIG
  • 261530Z AUTO 08010KT 030V120 CAVOK 20/15 Q1028
  • 261500Z AUTO 09011KT 040V130 CAVOK 20/15 Q1028
  • 261430Z AUTO 08006KT 340V150 CAVOK 21/16 Q1029

TAF AMD TAF LEAS
Valide du 26 à 16h jusqu'au 27 à 15h UTC


261657Z 2616/2715 08014KT 9999 FEW015 SCT025 TX21/2712Z TN11/2705Z
PROB30
TEMPO 2616/2618 08015G25KT
PROB30
TEMPO 2617/2621 4500 BR BKN014
PROB40
TEMPO 2621/2623 3000 BR BKN010
BECMG 2619/2622 VRB06KT
BECMG 2710/2712 09012KT



MET'MAP, la Météo Aéronautique d'un coup d'oeil ! - Copyright ORBIFLY Décembre 2007 - Disclaimer

ORBIFLY MET'MAP TEAM :

Programmation & Développement : Alexandra Zaïnal
Sur une idée originale de : Baudouin d'Aumeries
Assistance à la programmation : Marc-Olivier Méhu
Soutien technique & logistique : Manuel Goepfert

Contact : metmap@orbifly.com




SOURCES & CREDITS :

   NOAA